createdAt,value
2019-04-03T00:00:22.285Z,12.76
2019-04-03T00:02:55.568Z,12.61
2019-04-03T00:05:29.115Z,12.48
2019-04-03T00:08:02.400Z,12.39
2019-04-03T00:10:35.939Z,12.43
2019-04-03T00:13:11.395Z,12.44
2019-04-03T00:15:45.259Z,12.34
2019-04-03T00:18:18.593Z,12.34
2019-04-03T00:20:51.878Z,12.30
2019-04-03T00:23:25.151Z,12.29
2019-04-03T00:25:58.415Z,12.19
2019-04-03T00:28:31.705Z,12.13
2019-04-03T00:31:04.961Z,12.08
2019-04-03T00:33:38.240Z,12.12
2019-04-03T00:36:11.516Z,12.13
2019-04-03T00:38:44.814Z,12.11
2019-04-03T00:41:18.085Z,12.14
2019-04-03T00:43:51.378Z,12.15
2019-04-03T00:46:25.176Z,12.07
2019-04-03T00:48:58.674Z,12.04
2019-04-03T00:51:31.951Z,12.06
2019-04-03T00:54:05.233Z,12.02
2019-04-03T00:56:38.517Z,12.03
2019-04-03T00:59:11.793Z,12.03
2019-04-03T01:01:45.074Z,12.13
2019-04-03T01:04:18.367Z,12.20
2019-04-03T01:06:51.627Z,12.24
2019-04-03T01:09:24.950Z,12.30
2019-04-03T01:12:00.139Z,12.31
2019-04-03T01:14:33.170Z,12.30
2019-04-03T01:17:06.462Z,12.30
2019-04-03T01:19:39.717Z,12.29
2019-04-03T01:22:12.999Z,12.30
2019-04-03T01:24:46.342Z,12.29
2019-04-03T01:27:19.733Z,12.31
2019-04-03T01:29:52.971Z,12.32
2019-04-03T01:32:26.248Z,12.33
2019-04-03T01:34:59.505Z,12.35
2019-04-03T01:37:32.787Z,12.35
2019-04-03T01:40:06.805Z,12.35
2019-04-03T01:42:40.104Z,12.27
2019-04-03T01:45:13.372Z,12.20
2019-04-03T01:47:46.654Z,12.18
2019-04-03T01:50:19.933Z,12.15
2019-04-03T01:52:53.276Z,12.16
2019-04-03T01:55:26.592Z,12.13
2019-04-03T01:57:59.830Z,12.15
2019-04-03T02:00:33.094Z,12.16
2019-04-03T02:03:06.385Z,12.14
2019-04-03T02:05:39.641Z,12.12
2019-04-03T02:08:14.591Z,12.13
2019-04-03T02:10:48.909Z,12.15
2019-04-03T02:13:22.673Z,12.16
2019-04-03T02:15:55.961Z,12.20
2019-04-03T02:18:29.422Z,12.17
2019-04-03T02:21:02.654Z,12.15
2019-04-03T02:23:35.953Z,12.15
2019-04-03T02:26:09.222Z,12.06
2019-04-03T02:28:42.512Z,12.03
2019-04-03T02:31:19.263Z,12.01
2019-04-03T02:33:50.767Z,12.00
2019-04-03T02:36:24.036Z,11.98
2019-04-03T02:38:57.344Z,12.00
2019-04-03T02:41:30.589Z,12.00
2019-04-03T02:44:04.122Z,11.97
2019-04-03T02:46:37.661Z,11.91
2019-04-03T02:49:11.145Z,11.87
2019-04-03T02:51:45.390Z,11.83
2019-04-03T02:54:27.311Z,11.81
2019-04-03T02:57:00.556Z,11.66
2019-04-03T02:59:34.044Z,11.51
2019-04-03T03:02:11.381Z,11.58
2019-04-03T03:04:42.937Z,11.65
2019-04-03T03:07:16.261Z,11.70
2019-04-03T03:09:50.522Z,11.74
2019-04-03T03:12:25.011Z,11.80
2019-04-03T03:14:59.633Z,11.80
2019-04-03T03:17:33.054Z,11.78
2019-04-03T03:20:07.952Z,11.77
2019-04-03T03:22:41.446Z,11.75
2019-04-03T03:25:14.787Z,11.72
2019-04-03T03:27:48.718Z,11.71
2019-04-03T03:30:39.938Z,11.69
2019-04-03T03:33:21.610Z,11.70
2019-04-03T03:35:40.112Z,11.68
2019-04-03T03:38:09.228Z,11.67
2019-04-03T03:40:42.638Z,11.63
2019-04-03T03:43:16.757Z,11.48
2019-04-03T03:45:52.565Z,11.24
2019-04-03T03:48:25.357Z,11.20
2019-04-03T03:50:58.726Z,11.20
2019-04-03T03:53:32.885Z,11.15
2019-04-03T03:56:06.340Z,10.92
2019-04-03T03:58:40.258Z,10.93
2019-04-03T04:01:14.242Z,10.93
2019-04-03T04:03:47.820Z,10.87
2019-04-03T04:06:21.414Z,10.80
2019-04-03T04:08:54.783Z,10.91
2019-04-03T04:11:30.770Z,10.97
2019-04-03T04:14:04.000Z,10.97
2019-04-03T04:16:38.304Z,11.00
2019-04-03T04:19:12.147Z,10.93
2019-04-03T04:21:45.922Z,10.91
2019-04-03T04:24:19.431Z,10.88
2019-04-03T04:26:52.960Z,10.79
2019-04-03T04:29:26.246Z,10.61
2019-04-03T04:31:59.514Z,10.63
2019-04-03T04:34:32.777Z,10.60
2019-04-03T04:37:06.132Z,10.59
2019-04-03T04:39:39.388Z,10.50
2019-04-03T04:42:12.676Z,10.49
2019-04-03T04:44:45.958Z,10.44
2019-04-03T04:47:19.237Z,10.35
2019-04-03T04:49:53.688Z,10.29
2019-04-03T04:52:28.193Z,10.22
2019-04-03T04:55:02.791Z,10.15
2019-04-03T04:57:36.149Z,10.12
2019-04-03T05:00:09.762Z,10.07
2019-04-03T05:02:43.118Z,9.90
2019-04-03T05:05:16.389Z,9.89
2019-04-03T05:07:49.654Z,9.83
2019-04-03T05:10:23.470Z,9.83
2019-04-03T05:12:56.819Z,9.82
2019-04-03T05:15:30.083Z,9.85
2019-04-03T05:18:03.440Z,9.84
2019-04-03T05:20:36.689Z,9.88
2019-04-03T05:23:10.042Z,9.83
2019-04-03T05:25:43.757Z,9.86
2019-04-03T05:28:17.054Z,9.80
2019-04-03T05:30:50.357Z,9.79
2019-04-03T05:33:23.628Z,9.82
2019-04-03T05:35:56.921Z,9.83
2019-04-03T05:38:30.208Z,9.74
2019-04-03T05:41:03.728Z,9.79
2019-04-03T05:43:37.011Z,9.88
2019-04-03T05:46:10.286Z,9.93
2019-04-03T05:48:43.721Z,9.99
2019-04-03T05:51:17.161Z,10.08
2019-04-03T05:53:50.460Z,10.12
2019-04-03T05:56:25.625Z,10.11
2019-04-03T05:59:01.022Z,10.12
2019-04-03T06:01:33.932Z,10.18
2019-04-03T06:04:09.362Z,10.18
2019-04-03T06:06:42.501Z,10.19
2019-04-03T06:09:16.412Z,10.26
2019-04-03T06:11:51.945Z,10.24
2019-04-03T06:14:24.695Z,10.28
2019-04-03T06:16:58.336Z,10.42
2019-04-03T06:19:32.544Z,10.50
2019-04-03T06:22:08.622Z,10.67
2019-04-03T06:24:41.649Z,10.77
2019-04-03T06:27:14.917Z,10.83
2019-04-03T06:29:49.737Z,10.87
2019-04-03T06:32:24.863Z,10.80
2019-04-03T06:34:58.229Z,10.89
2019-04-03T06:37:31.518Z,10.86
2019-04-03T06:40:11.595Z,10.83
2019-04-03T06:42:45.645Z,10.83
2019-04-03T06:45:19.093Z,10.88
2019-04-03T06:47:52.399Z,10.91
2019-04-03T06:50:25.782Z,10.99
2019-04-03T06:52:59.029Z,10.97
2019-04-03T06:55:33.185Z,10.98
2019-04-03T06:58:07.455Z,11.05
2019-04-03T07:00:40.674Z,11.03
2019-04-03T07:03:13.955Z,11.14
2019-04-03T07:05:47.359Z,11.17
2019-04-03T07:08:30.257Z,11.16
2019-04-03T07:10:55.784Z,11.19
2019-04-03T07:13:30.062Z,11.20
2019-04-03T07:16:03.430Z,11.30
2019-04-03T07:18:37.455Z,11.39
2019-04-03T07:21:10.780Z,11.44
2019-04-03T07:23:44.039Z,11.46
2019-04-03T07:26:17.409Z,11.50
2019-04-03T07:28:50.692Z,11.41
2019-04-03T07:31:24.493Z,11.40
2019-04-03T07:34:00.175Z,11.30
2019-04-03T07:36:32.841Z,11.35
2019-04-03T07:39:10.386Z,11.25
2019-04-03T07:41:42.687Z,11.26
2019-04-03T07:44:16.463Z,11.16
2019-04-03T07:46:49.700Z,11.22
2019-04-03T07:49:23.037Z,11.11
2019-04-03T07:51:56.580Z,11.10
2019-04-03T07:54:29.873Z,11.05
2019-04-03T07:57:03.312Z,11.03
2019-04-03T07:59:36.820Z,10.97
2019-04-03T08:02:12.571Z,10.98
2019-04-03T08:04:45.462Z,10.94
2019-04-03T08:07:18.723Z,10.95
2019-04-03T08:09:52.010Z,10.96
2019-04-03T08:12:25.580Z,10.90
2019-04-03T08:14:59.196Z,10.89
2019-04-03T08:17:32.692Z,10.84
2019-04-03T08:20:07.156Z,10.77
2019-04-03T08:22:40.415Z,10.69
2019-04-03T08:25:14.082Z,10.57
2019-04-03T08:27:47.505Z,10.45
2019-04-03T08:30:22.507Z,10.46
2019-04-03T08:32:56.016Z,10.47
2019-04-03T08:35:29.820Z,10.33
2019-04-03T08:38:03.111Z,10.30
2019-04-03T08:40:36.387Z,10.33
2019-04-03T08:43:09.713Z,10.35
2019-04-03T08:45:42.981Z,10.31
2019-04-03T08:48:17.487Z,10.22
2019-04-03T08:50:51.317Z,10.23
2019-04-03T08:53:24.600Z,10.09
2019-04-03T08:55:58.073Z,10.08
2019-04-03T08:58:31.378Z,9.89
2019-04-03T09:01:05.322Z,8.84
2019-04-03T09:03:38.685Z,8.36
2019-04-03T09:06:11.929Z,8.42
2019-04-03T09:08:45.559Z,8.18
2019-04-03T09:11:18.889Z,7.97
2019-04-03T09:13:52.739Z,7.87
2019-04-03T09:16:27.171Z,7.78
2019-04-03T09:19:00.448Z,7.74
2019-04-03T09:21:33.995Z,7.76
2019-04-03T09:24:07.374Z,7.71
2019-04-03T09:26:40.902Z,7.79
2019-04-03T09:29:14.449Z,8.01
2019-04-03T09:31:50.644Z,7.85
2019-04-03T09:34:22.897Z,7.77
2019-04-03T09:36:56.698Z,7.78
2019-04-03T09:39:30.029Z,7.83
2019-04-03T09:42:03.320Z,7.79
2019-04-03T09:44:36.602Z,7.81
2019-04-03T09:47:09.890Z,7.70
2019-04-03T09:49:44.197Z,7.69
2019-04-03T09:52:17.798Z,7.60
2019-04-03T09:54:51.072Z,7.60
2019-04-03T09:57:24.538Z,7.62
2019-04-03T09:59:58.030Z,7.52
2019-04-03T10:02:31.257Z,7.54
2019-04-03T10:05:06.489Z,7.63
2019-04-03T10:07:40.657Z,7.56
2019-04-03T10:10:16.543Z,7.61
2019-04-03T10:12:49.282Z,7.51
2019-04-03T10:15:22.545Z,7.68
2019-04-03T10:17:55.809Z,7.77
2019-04-03T10:20:29.070Z,7.70
2019-04-03T10:23:02.376Z,7.88
2019-04-03T10:25:37.364Z,8.05
2019-04-03T10:28:13.700Z,7.82
2019-04-03T10:30:46.206Z,7.93
2019-04-03T10:33:19.494Z,8.09
2019-04-03T10:35:52.752Z,7.74
2019-04-03T10:38:26.304Z,7.72
2019-04-03T10:40:59.903Z,7.76
2019-04-03T10:43:33.232Z,7.96
2019-04-03T10:46:06.496Z,8.03
2019-04-03T10:48:39.729Z,8.02
2019-04-03T10:51:12.995Z,7.80
2019-04-03T10:53:46.369Z,7.66
2019-04-03T10:56:20.335Z,7.74
2019-04-03T10:58:53.641Z,7.81
2019-04-03T11:01:26.921Z,7.82
2019-04-03T11:04:00.242Z,7.74
2019-04-03T11:06:36.382Z,7.98
2019-04-03T11:09:09.132Z,8.42
2019-04-03T11:11:43.457Z,8.49
2019-04-03T11:14:17.285Z,9.03
2019-04-03T11:16:50.571Z,9.35
2019-04-03T11:19:23.849Z,8.81
2019-04-03T11:21:57.120Z,9.42
2019-04-03T11:24:30.412Z,9.65
2019-04-03T11:27:03.797Z,9.23
2019-04-03T11:29:37.574Z,9.23
2019-04-03T11:32:10.855Z,9.58
2019-04-03T11:34:44.120Z,8.93
2019-04-03T11:37:17.403Z,8.41
2019-04-03T11:40:01.357Z,8.80
2019-04-03T11:42:28.965Z,8.73
2019-04-03T11:45:03.994Z,8.49
2019-04-03T11:47:35.862Z,8.76
2019-04-03T11:50:09.507Z,9.06
2019-04-03T11:52:42.771Z,8.94
2019-04-03T11:55:16.645Z,9.01
2019-04-03T11:57:50.051Z,8.92
2019-04-03T12:00:28.008Z,9.04
2019-04-03T12:03:01.282Z,8.79
2019-04-03T12:05:34.578Z,8.86
2019-04-03T12:08:07.868Z,8.80
2019-04-03T12:10:41.218Z,8.81
2019-04-03T12:13:14.934Z,9.05
2019-04-03T12:15:48.327Z,9.26
2019-04-03T12:18:21.938Z,9.29
2019-04-03T12:20:55.454Z,9.30
2019-04-03T12:23:28.985Z,9.09
2019-04-03T12:26:02.448Z,8.91
2019-04-03T12:28:35.687Z,8.95
2019-04-03T12:31:09.407Z,8.60
2019-04-03T12:33:53.985Z,8.83
2019-04-03T12:36:18.123Z,9.16
2019-04-03T12:38:55.055Z,8.87
2019-04-03T12:41:27.504Z,8.94
2019-04-03T12:44:01.328Z,9.05
2019-04-03T12:46:40.742Z,9.65
2019-04-03T12:49:12.817Z,9.27
2019-04-03T12:51:46.103Z,9.44
2019-04-03T12:54:20.592Z,9.60
2019-04-03T12:56:54.665Z,8.93
2019-04-03T12:59:28.153Z,9.26
2019-04-03T13:02:01.529Z,9.03
2019-04-03T13:04:34.767Z,9.01
2019-04-03T13:07:08.771Z,8.96
2019-04-03T13:09:42.069Z,9.16
2019-04-03T13:12:15.296Z,9.32
2019-04-03T13:14:49.427Z,9.17
2019-04-03T13:17:22.789Z,9.40
2019-04-03T13:19:57.254Z,9.59
2019-04-03T13:22:31.100Z,9.66
2019-04-03T13:25:06.519Z,9.99
2019-04-03T13:27:39.859Z,9.88
2019-04-03T13:30:13.931Z,9.81
2019-04-03T13:32:57.396Z,9.68
2019-04-03T13:35:22.189Z,9.41
2019-04-03T13:37:56.151Z,9.29
2019-04-03T13:40:29.919Z,9.13
2019-04-03T13:43:03.196Z,9.46
2019-04-03T13:45:36.709Z,9.73
2019-04-03T13:48:12.752Z,9.62
2019-04-03T13:50:45.993Z,9.42
2019-04-03T13:53:20.536Z,9.41
2019-04-03T13:55:54.278Z,9.54
2019-04-03T13:58:28.511Z,9.35
2019-04-03T14:01:03.242Z,9.34
2019-04-03T14:03:37.472Z,9.27
2019-04-03T14:06:10.743Z,8.97
2019-04-03T14:08:45.326Z,8.99
2019-04-03T14:11:19.052Z,9.35
2019-04-03T14:13:52.833Z,9.65
2019-04-03T14:16:26.119Z,10.05
2019-04-03T14:18:59.372Z,9.56
2019-04-03T14:21:35.587Z,9.16
2019-04-03T14:24:08.995Z,8.96
2019-04-03T14:26:45.187Z,9.46
2019-04-03T14:29:18.010Z,9.44
2019-04-03T14:31:51.291Z,9.44
2019-04-03T14:34:24.569Z,9.25
2019-04-03T14:36:58.329Z,9.21
2019-04-03T14:39:31.896Z,9.01
2019-04-03T14:42:07.586Z,8.94
2019-04-03T14:44:41.671Z,8.96
2019-04-03T14:47:15.242Z,9.06
2019-04-03T14:49:48.597Z,9.02
2019-04-03T14:52:21.870Z,9.12
2019-04-03T14:54:56.718Z,9.08
2019-04-03T14:57:30.252Z,8.98
2019-04-03T15:00:22.410Z,8.96
2019-04-03T15:02:40.109Z,8.95
2019-04-03T15:05:13.886Z,8.92
2019-04-03T15:07:50.556Z,8.88
2019-04-03T15:10:22.941Z,8.96
2019-04-03T15:12:56.292Z,8.96
2019-04-03T15:15:30.069Z,8.78
2019-04-03T15:18:03.452Z,8.79
2019-04-03T15:20:36.715Z,8.83
2019-04-03T15:23:09.998Z,8.71
2019-04-03T15:25:43.712Z,8.65
2019-04-03T15:28:17.485Z,8.69
2019-04-03T15:30:50.805Z,8.64
2019-04-03T15:33:24.994Z,8.53
2019-04-03T15:35:58.708Z,8.47
2019-04-03T15:38:31.931Z,8.36
2019-04-03T15:41:05.210Z,8.10
2019-04-03T15:43:38.568Z,7.94
2019-04-03T15:46:11.904Z,7.61
2019-04-03T15:48:45.502Z,7.43
2019-04-03T15:51:18.809Z,7.36
2019-04-03T15:53:52.105Z,7.24
2019-04-03T15:56:25.371Z,7.03
2019-04-03T15:58:59.335Z,6.97
2019-04-03T16:01:32.672Z,6.91
2019-04-03T16:04:06.023Z,6.96
2019-04-03T16:06:39.362Z,6.87
2019-04-03T16:09:12.715Z,6.82
2019-04-03T16:11:46.043Z,6.75
2019-04-03T16:14:20.895Z,6.71
2019-04-03T16:16:54.253Z,6.68
2019-04-03T16:19:27.568Z,6.73
2019-04-03T16:22:01.329Z,6.63
2019-04-03T16:24:34.669Z,6.76
2019-04-03T16:27:09.491Z,6.81
2019-04-03T16:29:42.784Z,6.75
2019-04-03T16:32:16.559Z,6.65
2019-04-03T16:34:49.827Z,6.57
2019-04-03T16:37:23.381Z,6.68
2019-04-03T16:39:57.263Z,6.74
2019-04-03T16:42:30.881Z,6.63
2019-04-03T16:45:08.533Z,6.70
2019-04-03T16:47:44.112Z,6.71
2019-04-03T16:50:16.973Z,6.60
2019-04-03T16:52:50.707Z,6.62
2019-04-03T16:55:24.465Z,6.55
2019-04-03T16:57:57.769Z,6.67
2019-04-03T17:00:31.340Z,6.66
2019-04-03T17:03:04.794Z,6.69
2019-04-03T17:05:38.264Z,6.73
2019-04-03T17:08:11.540Z,6.72
2019-04-03T17:10:44.823Z,6.70
2019-04-03T17:13:18.888Z,6.70
2019-04-03T17:15:53.111Z,6.77
2019-04-03T17:18:26.400Z,6.74
2019-04-03T17:20:59.791Z,6.75
2019-04-03T17:23:33.040Z,6.69
2019-04-03T17:26:09.335Z,6.57
2019-04-03T17:28:41.761Z,6.61
2019-04-03T17:31:14.987Z,6.66
2019-04-03T17:33:48.292Z,6.62
2019-04-03T17:36:21.544Z,6.56
2019-04-03T17:38:55.107Z,6.50
2019-04-03T17:41:30.426Z,6.66
2019-04-03T17:44:03.559Z,6.62
2019-04-03T17:46:39.790Z,6.50
2019-04-03T17:49:11.877Z,6.42
2019-04-03T17:51:45.266Z,6.43
2019-04-03T17:54:18.525Z,6.42
2019-04-03T17:56:51.895Z,6.46
2019-04-03T17:59:25.148Z,6.51
2019-04-03T18:01:58.441Z,6.52
2019-04-03T18:04:31.855Z,6.59
2019-04-03T18:07:05.183Z,6.60
2019-04-03T18:09:38.507Z,6.64
2019-04-03T18:12:12.269Z,6.59
2019-04-03T18:14:45.565Z,6.55
2019-04-03T18:17:19.414Z,6.56
2019-04-03T18:19:52.814Z,6.60
2019-04-03T18:22:26.087Z,6.52
2019-04-03T18:24:59.441Z,6.58
2019-04-03T18:27:33.408Z,6.61
2019-04-03T18:30:11.154Z,6.60
2019-04-03T18:32:45.946Z,6.60
2019-04-03T18:35:19.093Z,6.56
2019-04-03T18:37:52.365Z,6.64
2019-04-03T18:40:25.759Z,6.54
2019-04-03T18:42:59.025Z,6.59
2019-04-03T18:45:32.347Z,6.62
2019-04-03T18:48:05.678Z,6.59
2019-04-03T18:50:39.006Z,6.60
2019-04-03T18:53:12.249Z,6.59
2019-04-03T18:55:45.622Z,6.49
2019-04-03T18:58:18.864Z,6.61
2019-04-03T19:00:52.211Z,6.57
2019-04-03T19:03:25.494Z,6.57
2019-04-03T19:05:59.987Z,6.47
2019-04-03T19:08:33.407Z,6.50
2019-04-03T19:11:09.391Z,6.46
2019-04-03T19:13:44.580Z,6.43
2019-04-03T19:16:29.040Z,6.50
2019-04-03T19:18:51.826Z,6.45
2019-04-03T19:21:28.572Z,6.42
2019-04-03T19:24:00.183Z,6.33
2019-04-03T19:26:33.497Z,6.40
2019-04-03T19:29:06.748Z,6.45
2019-04-03T19:31:40.684Z,6.46
2019-04-03T19:34:17.845Z,6.32
2019-04-03T19:36:49.167Z,6.38
2019-04-03T19:39:22.424Z,6.33
2019-04-03T19:41:55.826Z,6.23
2019-04-03T19:44:29.122Z,6.18
2019-04-03T19:47:02.406Z,6.11
2019-04-03T19:49:35.652Z,6.18
2019-04-03T19:52:08.961Z,6.19
2019-04-03T19:54:42.272Z,6.17
2019-04-03T19:57:15.561Z,6.22
2019-04-03T19:59:48.824Z,6.12
2019-04-03T20:02:22.181Z,6.11
2019-04-03T20:04:55.445Z,6.13
2019-04-03T20:07:28.717Z,6.17
2019-04-03T20:10:03.117Z,6.22
2019-04-03T20:12:37.797Z,6.17
2019-04-03T20:15:11.732Z,6.03
2019-04-03T20:17:45.046Z,5.91
2019-04-03T20:20:18.325Z,5.96
2019-04-03T20:22:51.587Z,5.99
2019-04-03T20:25:24.852Z,5.83
2019-04-03T20:27:58.780Z,5.90
2019-04-03T20:30:32.845Z,5.90
2019-04-03T20:33:06.711Z,5.95
2019-04-03T20:35:39.981Z,5.89
2019-04-03T20:38:13.249Z,5.93
2019-04-03T20:40:46.507Z,5.92
2019-04-03T20:43:19.868Z,5.87
2019-04-03T20:45:53.131Z,5.92
2019-04-03T20:48:28.393Z,5.94
2019-04-03T20:51:01.442Z,5.93
2019-04-03T20:53:34.728Z,5.87
2019-04-03T20:56:07.989Z,5.80
2019-04-03T20:58:41.301Z,5.82
2019-04-03T21:01:14.537Z,5.75
2019-04-03T21:03:47.842Z,5.75
2019-04-03T21:06:21.190Z,5.73
2019-04-03T21:08:55.286Z,5.83
2019-04-03T21:11:28.553Z,5.80
2019-04-03T21:14:01.903Z,5.75
2019-04-03T21:16:35.177Z,5.73
2019-04-03T21:19:08.491Z,5.66
2019-04-03T21:21:41.769Z,5.69
2019-04-03T21:24:15.025Z,5.67
2019-04-03T21:26:48.306Z,5.64
2019-04-03T21:29:21.579Z,5.72
2019-04-03T21:31:56.403Z,5.65
2019-04-03T21:34:32.474Z,5.56
2019-04-03T21:37:05.106Z,5.61
2019-04-03T21:39:38.372Z,5.49
2019-04-03T21:42:11.638Z,5.47
2019-04-03T21:44:44.909Z,5.46
2019-04-03T21:47:18.187Z,5.45
2019-04-03T21:49:51.482Z,5.54
2019-04-03T21:52:24.731Z,5.50
2019-04-03T21:54:58.751Z,5.51
2019-04-03T21:57:32.465Z,5.44
2019-04-03T22:00:07.780Z,5.45
2019-04-03T22:02:41.059Z,5.53
2019-04-03T22:05:14.326Z,5.54
2019-04-03T22:07:47.618Z,5.57
2019-04-03T22:10:20.880Z,5.53
2019-04-03T22:12:54.156Z,5.52
2019-04-03T22:15:27.421Z,5.48
2019-04-03T22:18:00.700Z,5.49
2019-04-03T22:20:33.990Z,5.48
2019-04-03T22:23:07.286Z,5.49
2019-04-03T22:25:40.567Z,5.53
2019-04-03T22:28:14.101Z,5.53
2019-04-03T22:30:47.394Z,5.45
2019-04-03T22:33:20.676Z,5.56
2019-04-03T22:35:53.950Z,5.56
2019-04-03T22:38:27.230Z,5.54
2019-04-03T22:41:00.489Z,5.44
2019-04-03T22:43:33.775Z,5.49
2019-04-03T22:46:07.037Z,5.50
2019-04-03T22:48:40.306Z,5.53
2019-04-03T22:51:13.574Z,5.43
2019-04-03T22:53:46.849Z,5.52
2019-04-03T22:56:20.107Z,5.50
2019-04-03T22:58:53.467Z,5.48
2019-04-03T23:01:29.570Z,5.47
2019-04-03T23:04:04.972Z,5.47
2019-04-03T23:06:36.864Z,5.52
2019-04-03T23:09:10.254Z,5.60
2019-04-03T23:11:43.507Z,5.58
2019-04-03T23:14:16.801Z,5.59
2019-04-03T23:16:50.074Z,5.50
2019-04-03T23:19:23.348Z,5.53
2019-04-03T23:21:56.616Z,5.49
2019-04-03T23:24:29.898Z,5.44
2019-04-03T23:27:03.268Z,5.48
2019-04-03T23:29:36.819Z,5.48
2019-04-03T23:32:10.193Z,5.30
2019-04-03T23:34:43.941Z,5.37
2019-04-03T23:37:17.209Z,5.44
2019-04-03T23:39:50.589Z,5.44
2019-04-03T23:42:23.867Z,5.41
2019-04-03T23:44:57.175Z,5.46
2019-04-03T23:47:30.456Z,5.34
2019-04-03T23:50:05.975Z,5.30
2019-04-03T23:52:39.277Z,5.18
2019-04-03T23:55:12.638Z,5.20
2019-04-03T23:57:45.890Z,5.24
